General Aviation Weather

Text Reports

Enter one or more of the following location identifiers separated by a space:

Zip Code, Four-Character ICAO or Three-Character IATA airport codes.

METAR - Aviation Routine Weather Report
KVDI - Vidalia, Georgia
Updated at 7:35 PM GMT on July 23, 2014 (3:35 PM EDT):
METAR KVDI 231935Z AUTO 16003KT 10SM 31/23 A3003 RMK AO2
TAF - Terminal Area Forecast
KVDI - Vidalia, Georgia
Updated at 7:35 PM GMT on July 23, 2014 (3:35 PM EDT):
No TAF is currently available for this location.
Decoded:
No decoded TAF is available.
PIREP - Pilot Weather Report
KVDI - Vidalia, Georgia
Updated at 7:35 PM GMT on July 23, 2014 (3:35 PM EDT):
No PIREP is currently available for this location.
AIRMET - Airmens Meteorological Information
KVDI - Vidalia, Georgia
Updated at 7:35 PM GMT on July 23, 2014 (3:35 PM EDT):
No AIRMET is currently available for this location.
SIGMET - Significant Meteorological Information
KVDI - Vidalia, Georgia
Updated at 7:35 PM GMT on July 23, 2014 (3:35 PM EDT):
No SIGMET is currently available for this location.
NOTAM - Notice to Airmen
KVDI - Vidalia, Georgia
Updated at 7:35 PM GMT on July 23, 2014 (3:35 PM EDT):
No NOTAM is currently available for this location.
Forecast Area
KVDI - Vidalia, Georgia
Updated at 7:35 PM GMT on July 23, 2014 (3:35 PM EDT):
No NOTAM is currently available for this location.
Aviation Weather Maps